createdAt,value
2018-04-28T00:00:40.361Z,2.10
2018-04-28T00:01:40.340Z,2.20
2018-04-28T00:02:40.267Z,2.30
2018-04-28T00:03:40.251Z,2.10
2018-04-28T00:04:40.170Z,2.30
2018-04-28T00:05:40.125Z,2.00
2018-04-28T00:06:40.077Z,2.40
2018-04-28T00:07:40.026Z,2.40
2018-04-28T00:08:40.006Z,2.10
2018-04-28T00:09:39.932Z,2.20
2018-04-28T00:10:39.886Z,2.10
2018-04-28T00:11:39.843Z,2.20
2018-04-28T00:12:39.789Z,2.20
2018-04-28T00:13:39.767Z,2.50
2018-04-28T00:14:39.695Z,2.30
2018-04-28T00:15:39.648Z,2.30
2018-04-28T00:16:39.604Z,2.40
2018-04-28T00:17:39.553Z,2.10
2018-04-28T00:18:39.529Z,2.40
2018-04-28T00:19:39.460Z,2.10
2018-04-28T00:20:39.411Z,2.50
2018-04-28T00:21:39.365Z,2.40
2018-04-28T00:22:39.312Z,2.60
2018-04-28T00:23:39.288Z,2.30
2018-04-28T00:24:39.223Z,2.50
2018-04-28T00:25:39.188Z,2.50
2018-04-28T00:26:39.128Z,2.50
2018-04-28T00:27:39.079Z,2.40
2018-04-28T00:28:39.053Z,2.60
2018-04-28T00:29:38.983Z,2.40
2018-04-28T00:30:38.935Z,2.70
2018-04-28T00:31:38.890Z,2.50
2018-04-28T00:32:38.842Z,2.70
2018-04-28T00:33:38.816Z,2.50
2018-04-28T00:34:38.743Z,2.70
2018-04-28T00:35:38.698Z,2.40
2018-04-28T00:36:38.648Z,2.50
2018-04-28T00:37:38.603Z,2.40
2018-04-28T00:38:38.574Z,2.80
2018-04-28T00:39:38.508Z,2.70
2018-04-28T00:40:38.458Z,2.60
2018-04-28T00:41:38.410Z,2.70
2018-04-28T00:42:38.375Z,2.60
2018-04-28T00:43:38.341Z,2.70
2018-04-28T00:44:38.267Z,2.60
2018-04-28T00:45:38.219Z,2.60
2018-04-28T00:46:38.175Z,2.40
2018-04-28T00:47:38.125Z,2.80
2018-04-28T00:48:38.101Z,2.70
2018-04-28T00:49:38.100Z,2.90
2018-04-28T00:50:37.981Z,2.90
2018-04-28T00:51:37.934Z,2.50
2018-04-28T00:52:37.887Z,2.70
2018-04-28T00:53:37.865Z,2.90
2018-04-28T00:54:37.789Z,2.80
2018-04-28T00:55:37.743Z,2.70
2018-04-28T00:56:37.698Z,2.80
2018-04-28T00:57:37.647Z,2.80
2018-04-28T00:58:37.663Z,2.60
2018-04-28T00:59:37.553Z,2.80
2018-04-28T01:00:37.511Z,2.80
2018-04-28T01:01:37.460Z,2.70
2018-04-28T01:02:37.409Z,2.80
2018-04-28T01:03:37.363Z,2.80
2018-04-28T01:04:37.336Z,2.80
2018-04-28T01:05:37.268Z,2.80
2018-04-28T01:06:37.219Z,2.90
2018-04-28T01:07:37.169Z,2.80
2018-04-28T01:08:37.128Z,2.90
2018-04-28T01:09:37.097Z,3.10
2018-04-28T01:10:37.026Z,3.00
2018-04-28T01:11:36.984Z,2.90
2018-04-28T01:12:36.931Z,3.20
2018-04-28T01:13:36.884Z,3.30
2018-04-28T01:14:36.858Z,3.20
2018-04-28T01:15:36.791Z,3.10
2018-04-28T01:16:36.740Z,2.90
2018-04-28T01:17:36.696Z,3.10
2018-04-28T01:18:36.649Z,3.00
2018-04-28T01:19:36.623Z,2.90
2018-04-28T01:20:36.549Z,3.00
2018-04-28T01:21:36.503Z,3.50
2018-04-28T01:22:36.449Z,3.10
2018-04-28T01:23:36.409Z,3.30
2018-04-28T01:24:36.381Z,3.30
2018-04-28T01:25:36.314Z,3.30
2018-04-28T01:26:36.264Z,3.40
2018-04-28T01:27:36.214Z,3.40
2018-04-28T01:28:36.170Z,3.20
2018-04-28T01:29:36.146Z,3.30
2018-04-28T01:30:36.072Z,3.20
2018-04-28T01:31:36.921Z,3.30
2018-04-28T01:32:35.975Z,3.30
2018-04-28T01:33:35.931Z,3.30
2018-04-28T01:34:35.919Z,3.50
2018-04-28T01:35:35.831Z,3.30
2018-04-28T01:36:35.783Z,3.50
2018-04-28T01:37:35.734Z,3.50
2018-04-28T01:38:35.687Z,3.40
2018-04-28T01:39:35.642Z,3.70
2018-04-28T01:40:35.618Z,3.40
2018-04-28T01:41:35.544Z,3.30
2018-04-28T01:42:35.498Z,3.40
2018-04-28T01:43:35.451Z,3.60
2018-04-28T01:44:35.398Z,3.60
2018-04-28T01:45:35.377Z,3.30
2018-04-28T01:46:35.306Z,3.70
2018-04-28T01:47:35.256Z,3.30
2018-04-28T01:48:35.206Z,3.30
2018-04-28T01:49:35.167Z,3.40
2018-04-28T01:50:35.140Z,3.60
2018-04-28T01:51:35.072Z,3.60
2018-04-28T01:52:35.017Z,3.40
2018-04-28T01:53:34.971Z,3.70
2018-04-28T01:54:34.922Z,3.70
2018-04-28T01:55:34.896Z,3.40
2018-04-28T01:56:34.825Z,3.30
2018-04-28T01:57:34.775Z,3.30
2018-04-28T01:58:34.729Z,3.40
2018-04-28T01:59:34.686Z,3.30
2018-04-28T02:00:34.657Z,3.50
2018-04-28T02:01:34.589Z,3.50
2018-04-28T02:02:34.539Z,3.60
2018-04-28T02:03:34.492Z,3.80
2018-04-28T02:04:34.446Z,3.50
2018-04-28T02:05:34.417Z,3.40
2018-04-28T02:06:34.345Z,3.40
2018-04-28T02:07:34.300Z,3.50
2018-04-28T02:08:34.249Z,3.70
2018-04-28T02:09:34.203Z,3.70
2018-04-28T02:10:34.186Z,3.50
2018-04-28T02:11:34.108Z,4.00
2018-04-28T02:12:34.055Z,3.40
2018-04-28T02:13:34.012Z,4.00
2018-04-28T02:14:33.964Z,3.80
2018-04-28T02:15:33.920Z,3.90
2018-04-28T02:16:33.892Z,4.00
2018-04-28T02:17:33.820Z,3.80
2018-04-28T02:18:33.771Z,3.70
2018-04-28T02:19:33.734Z,3.60
2018-04-28T02:20:33.673Z,3.90
2018-04-28T02:21:33.651Z,3.80
2018-04-28T02:22:33.580Z,4.00
2018-04-28T02:23:33.531Z,3.70
2018-04-28T02:24:33.484Z,4.00
2018-04-28T02:25:33.435Z,3.90
2018-04-28T02:26:33.414Z,3.90
2018-04-28T02:27:33.343Z,3.80
2018-04-28T02:28:33.293Z,4.10
2018-04-28T02:29:33.244Z,3.70
2018-04-28T02:30:33.195Z,4.20
2018-04-28T02:31:33.167Z,4.00
2018-04-28T02:32:33.107Z,3.70
2018-04-28T02:33:33.055Z,3.90
2018-04-28T02:34:33.004Z,4.30
2018-04-28T02:35:32.959Z,3.90
2018-04-28T02:36:32.930Z,3.90
2018-04-28T02:37:32.858Z,4.10
2018-04-28T02:38:32.825Z,4.00
2018-04-28T02:39:32.763Z,4.30
2018-04-28T02:40:32.713Z,4.10
2018-04-28T02:41:32.695Z,4.10
2018-04-28T02:42:32.617Z,4.00
2018-04-28T02:43:32.568Z,4.00
2018-04-28T02:44:32.518Z,4.10
2018-04-28T02:45:32.477Z,4.30
2018-04-28T02:46:32.448Z,4.40
2018-04-28T02:47:32.379Z,3.80
2018-04-28T02:48:32.331Z,4.10
2018-04-28T02:49:32.279Z,4.20
2018-04-28T02:50:32.231Z,4.10
2018-04-28T02:51:32.216Z,4.50
2018-04-28T02:52:32.135Z,4.30
2018-04-28T02:53:32.088Z,4.20
2018-04-28T02:54:32.040Z,4.40
2018-04-28T02:55:31.993Z,4.40
2018-04-28T02:56:31.964Z,4.30
2018-04-28T02:57:31.896Z,4.20
2018-04-28T02:58:31.846Z,4.30
2018-04-28T02:59:31.796Z,4.10
2018-04-28T03:00:31.750Z,4.10
2018-04-28T03:01:31.722Z,4.10
2018-04-28T03:02:31.648Z,4.20
2018-04-28T03:03:31.605Z,4.10
2018-04-28T03:04:31.556Z,4.30
2018-04-28T03:05:31.505Z,4.30
2018-04-28T03:06:31.493Z,4.20
2018-04-28T03:07:31.412Z,4.10
2018-04-28T03:08:31.358Z,4.40
2018-04-28T03:09:31.312Z,4.30
2018-04-28T03:10:31.264Z,4.50
2018-04-28T03:11:31.216Z,4.00
2018-04-28T03:12:31.190Z,4.30
2018-04-28T03:13:31.118Z,4.20
2018-04-28T03:14:31.071Z,4.50
2018-04-28T03:15:31.021Z,4.20
2018-04-28T03:16:30.978Z,4.50
2018-04-28T03:17:30.948Z,4.60
2018-04-28T03:18:30.880Z,4.50
2018-04-28T03:19:30.828Z,4.30
2018-04-28T03:20:30.785Z,4.40
2018-04-28T03:21:30.732Z,4.50
2018-04-28T03:22:30.735Z,4.10
2018-04-28T03:23:30.636Z,4.60
2018-04-28T03:24:30.604Z,4.20
2018-04-28T03:25:30.540Z,4.60
2018-04-28T03:26:30.486Z,4.50
2018-04-28T03:27:30.467Z,4.50
2018-04-28T03:28:30.404Z,4.10
2018-04-28T03:29:30.344Z,4.50
2018-04-28T03:30:30.298Z,4.80
2018-04-28T03:31:30.252Z,4.60
2018-04-28T03:32:30.239Z,4.50
2018-04-28T03:33:30.151Z,4.80
2018-04-28T03:34:30.106Z,4.60
2018-04-28T03:35:30.058Z,4.40
2018-04-28T03:36:30.007Z,4.70
2018-04-28T03:37:29.998Z,4.70
2018-04-28T03:38:29.911Z,4.60
2018-04-28T03:39:29.858Z,4.40
2018-04-28T03:40:29.810Z,4.90
2018-04-28T03:41:29.760Z,4.60
2018-04-28T03:42:29.716Z,4.50
2018-04-28T03:43:29.692Z,4.50
2018-04-28T03:44:29.617Z,4.50
2018-04-28T03:45:29.573Z,4.20
2018-04-28T03:46:29.520Z,4.40
2018-04-28T03:47:29.470Z,4.10
2018-04-28T03:48:29.444Z,4.50
2018-04-28T03:49:29.376Z,4.70
2018-04-28T03:50:29.325Z,4.70
2018-04-28T03:51:29.276Z,4.70
2018-04-28T03:52:29.231Z,4.90
2018-04-28T03:53:29.216Z,4.90
2018-04-28T03:54:29.131Z,4.50
2018-04-28T03:55:29.082Z,4.50
2018-04-28T03:56:29.035Z,4.70
2018-04-28T03:57:28.984Z,4.60
2018-04-28T03:58:28.961Z,4.50
2018-04-28T03:59:28.889Z,4.60
2018-04-28T04:00:28.843Z,4.60
2018-04-28T04:01:28.791Z,4.60
2018-04-28T04:02:28.760Z,4.50
2018-04-28T04:03:28.720Z,4.60
2018-04-28T04:04:28.648Z,4.80
2018-04-28T04:05:28.600Z,4.40
2018-04-28T04:06:28.553Z,4.70
2018-04-28T04:07:28.502Z,4.60
2018-04-28T04:08:28.478Z,4.00
2018-04-28T04:09:28.405Z,4.40
2018-04-28T04:10:28.356Z,4.70
2018-04-28T04:11:28.314Z,4.50
2018-04-28T04:12:28.261Z,4.60
2018-04-28T04:13:28.234Z,5.00
2018-04-28T04:14:28.165Z,4.60
2018-04-28T04:15:28.118Z,4.70
2018-04-28T04:16:28.074Z,4.90
2018-04-28T04:17:28.022Z,4.80
2018-04-28T04:18:28.008Z,4.50
2018-04-28T04:19:27.923Z,4.20
2018-04-28T04:20:27.873Z,4.50
2018-04-28T04:21:27.825Z,4.40
2018-04-28T04:22:27.778Z,4.50
2018-04-28T04:23:27.728Z,4.70
2018-04-28T04:24:27.705Z,4.70
2018-04-28T04:25:27.633Z,4.40
2018-04-28T04:26:27.671Z,4.50
2018-04-28T04:27:27.539Z,4.50
2018-04-28T04:28:27.487Z,4.70
2018-04-28T04:29:27.466Z,4.70
2018-04-28T04:30:27.390Z,4.80
2018-04-28T04:31:27.352Z,4.70
2018-04-28T04:32:27.293Z,4.70
2018-04-28T04:33:27.248Z,4.80
2018-04-28T04:34:27.219Z,4.90
2018-04-28T04:35:27.151Z,4.70
2018-04-28T04:36:27.106Z,4.90
2018-04-28T04:37:27.052Z,4.80
2018-04-28T04:38:27.004Z,4.50
2018-04-28T04:39:27.047Z,4.80
2018-04-28T04:40:26.905Z,4.70
2018-04-28T04:41:26.859Z,4.70
2018-04-28T04:42:26.815Z,4.80
2018-04-28T04:43:26.759Z,4.50
2018-04-28T04:44:26.752Z,4.50
2018-04-28T04:45:26.667Z,4.50
2018-04-28T04:46:26.623Z,4.80
2018-04-28T04:47:26.569Z,4.70
2018-04-28T04:48:26.522Z,4.70
2018-04-28T04:49:26.474Z,4.50
2018-04-28T04:50:26.449Z,4.60
2018-04-28T04:51:26.373Z,4.50
2018-04-28T04:52:26.328Z,4.70
2018-04-28T04:53:26.279Z,4.60
2018-04-28T04:54:26.252Z,4.50
2018-04-28T04:55:26.203Z,4.80
2018-04-28T04:56:26.133Z,4.50
2018-04-28T04:57:26.085Z,4.80
2018-04-28T04:58:26.037Z,4.90
2018-04-28T04:59:25.988Z,4.50
2018-04-28T05:00:25.962Z,4.80
2018-04-28T05:01:25.887Z,5.00
2018-04-28T05:02:25.844Z,4.40
2018-04-28T05:03:25.797Z,4.60
2018-04-28T05:04:25.746Z,4.70
2018-04-28T05:05:25.728Z,4.50
2018-04-28T05:06:25.652Z,4.60
2018-04-28T05:07:25.601Z,4.70
2018-04-28T05:08:25.554Z,4.50
2018-04-28T05:09:25.506Z,4.80
2018-04-28T05:10:25.482Z,4.40
2018-04-28T05:11:25.414Z,4.60
2018-04-28T05:12:25.362Z,4.60
2018-04-28T05:13:25.314Z,4.50
2018-04-28T05:14:25.270Z,4.60
2018-04-28T05:15:25.241Z,4.60
2018-04-28T05:16:25.177Z,4.40
2018-04-28T05:17:25.122Z,4.40
2018-04-28T05:18:25.076Z,4.50
2018-04-28T05:19:25.027Z,4.40
2018-04-28T05:20:25.001Z,4.40
2018-04-28T05:21:24.932Z,4.50
2018-04-28T05:22:24.886Z,4.20
2018-04-28T05:23:24.835Z,4.40
2018-04-28T05:24:24.786Z,4.50
2018-04-28T05:25:24.762Z,4.10
2018-04-28T05:26:24.689Z,4.00
2018-04-28T05:27:24.642Z,4.00
2018-04-28T05:28:24.601Z,4.00
2018-04-28T05:29:24.550Z,3.90
2018-04-28T05:30:24.543Z,4.10
2018-04-28T05:31:24.456Z,4.00
2018-04-28T05:32:24.410Z,4.00
2018-04-28T05:33:24.359Z,3.60
2018-04-28T05:34:24.314Z,3.80
2018-04-28T05:35:24.264Z,4.00
2018-04-28T05:36:24.238Z,3.60
2018-04-28T05:37:24.173Z,3.60
2018-04-28T05:38:24.122Z,4.00
2018-04-28T05:39:24.074Z,3.60
2018-04-28T05:40:24.028Z,3.40
2018-04-28T05:41:24.005Z,3.40
2018-04-28T05:42:23.936Z,3.80
2018-04-28T05:43:23.889Z,3.40
2018-04-28T05:44:23.840Z,3.50
2018-04-28T05:45:23.795Z,3.30
2018-04-28T05:46:23.769Z,3.30
2018-04-28T05:47:23.702Z,3.10
2018-04-28T05:48:23.706Z,3.10
2018-04-28T05:49:23.603Z,2.80
2018-04-28T05:50:23.560Z,2.80
2018-04-28T05:51:23.541Z,2.70
2018-04-28T05:52:23.467Z,2.40
2018-04-28T05:53:23.418Z,2.50
2018-04-28T05:54:23.373Z,2.70
2018-04-28T05:55:23.327Z,2.60
2018-04-28T05:56:23.301Z,2.30
2018-04-28T05:57:23.234Z,2.50
2018-04-28T05:58:23.186Z,2.90
2018-04-28T05:59:23.141Z,2.70
2018-04-28T06:00:23.092Z,2.80
2018-04-28T06:01:23.088Z,2.40
2018-04-28T06:02:23.003Z,2.90
2018-04-28T06:03:23.034Z,2.50
2018-04-28T06:04:22.907Z,2.20
2018-04-28T06:05:22.859Z,2.50
2018-04-28T06:06:22.814Z,2.30
2018-04-28T06:07:22.790Z,2.40
2018-04-28T06:08:22.730Z,2.10
2018-04-28T06:09:22.684Z,2.50
2018-04-28T06:10:22.632Z,2.40
2018-04-28T06:11:22.584Z,2.20
2018-04-28T06:12:22.563Z,2.40
2018-04-28T06:13:22.493Z,2.40
2018-04-28T06:14:22.447Z,2.30
2018-04-28T06:15:22.403Z,2.30
2018-04-28T06:16:22.353Z,2.40
2018-04-28T06:17:22.343Z,2.50
2018-04-28T06:18:22.263Z,2.60
2018-04-28T06:19:22.216Z,2.70
2018-04-28T06:20:22.172Z,2.20
2018-04-28T06:21:22.128Z,2.50
2018-04-28T06:22:22.106Z,2.30
2018-04-28T06:23:22.045Z,2.50
2018-04-28T06:24:21.989Z,2.10
2018-04-28T06:25:21.947Z,2.40
2018-04-28T06:26:21.901Z,2.30
2018-04-28T06:27:21.858Z,2.50
2018-04-28T06:28:21.829Z,2.20
2018-04-28T06:29:21.763Z,2.40
2018-04-28T06:30:21.717Z,2.30
2018-04-28T06:31:21.672Z,2.40
2018-04-28T06:32:21.624Z,2.20
2018-04-28T06:33:21.604Z,2.40
2018-04-28T06:34:21.534Z,2.30
2018-04-28T06:35:21.487Z,2.60
2018-04-28T06:36:21.443Z,2.20
2018-04-28T06:37:21.398Z,2.50
2018-04-28T06:38:21.373Z,2.50
2018-04-28T06:39:21.305Z,2.40
2018-04-28T06:40:21.261Z,2.50
2018-04-28T06:41:21.215Z,2.40
2018-04-28T06:42:21.171Z,2.40
2018-04-28T06:43:21.147Z,2.70
2018-04-28T06:44:21.197Z,2.50
2018-04-28T06:45:21.030Z,2.40
2018-04-28T06:46:20.986Z,2.60
2018-04-28T06:47:20.951Z,2.50
2018-04-28T06:48:20.915Z,2.70
2018-04-28T06:49:20.848Z,2.40
2018-04-28T06:50:20.805Z,2.30
2018-04-28T06:51:20.756Z,2.50
2018-04-28T06:52:20.711Z,2.70
2018-04-28T06:53:20.687Z,2.40
2018-04-28T06:54:20.622Z,2.20
2018-04-28T06:55:20.574Z,2.30
2018-04-28T06:56:20.531Z,2.40
2018-04-28T06:57:20.481Z,2.30
2018-04-28T06:58:20.460Z,2.20
2018-04-28T06:59:20.394Z,2.10
2018-04-28T07:00:20.346Z,2.40
2018-04-28T07:01:20.301Z,2.30
2018-04-28T07:02:20.255Z,2.30
2018-04-28T07:03:20.234Z,2.30
2018-04-28T07:04:20.164Z,2.60
2018-04-28T07:05:20.117Z,2.30
2018-04-28T07:06:20.076Z,2.50
2018-04-28T07:07:20.028Z,2.00
2018-04-28T07:08:20.006Z,2.50
2018-04-28T07:09:19.936Z,2.20
2018-04-28T07:10:19.893Z,2.30
2018-04-28T07:11:19.845Z,2.30
2018-04-28T07:12:19.801Z,2.20
2018-04-28T07:13:19.776Z,2.30
2018-04-28T07:14:19.715Z,2.30
2018-04-28T07:15:19.666Z,2.20
2018-04-28T07:16:19.623Z,2.40
2018-04-28T07:17:19.571Z,2.20
2018-04-28T07:18:19.553Z,2.20
2018-04-28T07:19:19.485Z,2.70
2018-04-28T07:20:19.438Z,2.40
2018-04-28T07:21:19.398Z,2.40
2018-04-28T07:22:19.346Z,2.40
2018-04-28T07:23:19.358Z,2.40
2018-04-28T07:24:19.258Z,2.40
2018-04-28T07:25:19.210Z,2.30
2018-04-28T07:26:19.170Z,2.40
2018-04-28T07:27:19.122Z,2.40
2018-04-28T07:28:19.097Z,2.20
2018-04-28T07:29:19.091Z,2.40
2018-04-28T07:30:18.986Z,2.30
2018-04-28T07:31:18.942Z,2.60
2018-04-28T07:32:18.893Z,2.50
2018-04-28T07:33:18.888Z,2.20
2018-04-28T07:34:18.805Z,2.60
2018-04-28T07:35:18.816Z,2.10
2018-04-28T07:36:18.715Z,2.60
2018-04-28T07:37:18.669Z,2.30
2018-04-28T07:38:18.625Z,2.20
2018-04-28T07:39:18.607Z,2.30
2018-04-28T07:40:18.534Z,2.50
2018-04-28T07:41:18.487Z,2.10
2018-04-28T07:42:18.447Z,2.40
2018-04-28T07:43:18.399Z,2.60
2018-04-28T07:44:18.374Z,2.30
2018-04-28T07:45:18.308Z,2.30
2018-04-28T07:46:18.265Z,2.40
2018-04-28T07:47:18.219Z,2.20
2018-04-28T07:48:18.174Z,2.30
2018-04-28T07:49:18.158Z,2.20
2018-04-28T07:50:18.089Z,2.60
2018-04-28T07:51:18.036Z,2.30
2018-04-28T07:52:17.995Z,2.30
2018-04-28T07:53:17.952Z,2.50
2018-04-28T07:54:17.930Z,2.30
2018-04-28T07:55:17.860Z,2.70
2018-04-28T07:56:17.815Z,2.30
2018-04-28T07:57:17.774Z,2.20
2018-04-28T07:58:17.737Z,2.40
2018-04-28T07:59:17.700Z,2.40
2018-04-28T08:00:17.649Z,2.50
2018-04-28T08:01:17.590Z,2.50
2018-04-28T08:02:17.547Z,2.40
2018-04-28T08:03:17.503Z,2.20
2018-04-28T08:04:17.481Z,2.40
2018-04-28T08:05:17.411Z,2.70
2018-04-28T08:06:17.367Z,2.70
2018-04-28T08:07:17.325Z,2.60
2018-04-28T08:08:17.276Z,2.50
2018-04-28T08:09:17.260Z,2.30
2018-04-28T08:10:17.209Z,2.50
2018-04-28T08:11:17.153Z,2.40
2018-04-28T08:12:17.099Z,2.60
2018-04-28T08:13:17.053Z,2.80
2018-04-28T08:14:17.036Z,2.80
2018-04-28T08:15:17.025Z,2.20
2018-04-28T08:16:16.920Z,2.30
2018-04-28T08:17:16.878Z,2.60
2018-04-28T08:18:16.833Z,2.40
2018-04-28T08:19:16.812Z,2.50
2018-04-28T08:20:16.743Z,2.70
2018-04-28T08:21:16.699Z,2.50
2018-04-28T08:22:16.654Z,2.80
2018-04-28T08:23:16.610Z,2.70
2018-04-28T08:24:16.585Z,2.70
2018-04-28T08:25:16.521Z,2.50
2018-04-28T08:26:16.478Z,2.50
2018-04-28T08:27:16.434Z,2.70
2018-04-28T08:28:16.385Z,2.60
2018-04-28T08:29:16.363Z,2.50
2018-04-28T08:30:16.297Z,2.50
2018-04-28T08:31:16.251Z,2.60
2018-04-28T08:32:16.208Z,2.40
2018-04-28T08:33:16.162Z,2.90
2018-04-28T08:34:16.143Z,2.40
2018-04-28T08:35:16.075Z,2.50
2018-04-28T08:36:16.029Z,2.70
2018-04-28T08:37:16.047Z,2.50
2018-04-28T08:38:15.940Z,2.60
2018-04-28T08:39:15.926Z,2.60
2018-04-28T08:40:15.854Z,2.60
2018-04-28T08:41:15.808Z,2.60
2018-04-28T08:42:15.763Z,2.40
2018-04-28T08:43:15.719Z,2.70
2018-04-28T08:44:15.737Z,2.60
2018-04-28T08:45:15.670Z,2.60
2018-04-28T08:46:15.585Z,2.60
2018-04-28T08:47:15.543Z,2.70
2018-04-28T08:48:15.496Z,2.40
2018-04-28T08:49:15.480Z,2.50
2018-04-28T08:50:15.412Z,2.70
2018-04-28T08:51:15.366Z,2.30
2018-04-28T08:52:15.323Z,2.40
2018-04-28T08:53:15.278Z,2.50
2018-04-28T08:54:15.259Z,2.40
2018-04-28T08:55:15.184Z,2.70
2018-04-28T08:56:15.145Z,2.50
2018-04-28T08:57:15.101Z,2.40
2018-04-28T08:58:15.054Z,2.70
2018-04-28T08:59:15.053Z,2.70
2018-04-28T09:00:14.973Z,2.60
2018-04-28T09:01:14.925Z,2.70
2018-04-28T09:02:14.880Z,2.50
2018-04-28T09:03:14.836Z,2.40
2018-04-28T09:04:14.791Z,2.50
2018-04-28T09:05:14.777Z,2.40
2018-04-28T09:06:14.702Z,2.80
2018-04-28T09:07:14.659Z,2.70
2018-04-28T09:08:14.615Z,2.40
2018-04-28T09:09:14.572Z,2.30
2018-04-28T09:10:14.547Z,2.50
2018-04-28T09:11:14.484Z,2.50
2018-04-28T09:12:14.438Z,2.40
2018-04-28T09:13:14.400Z,2.60
2018-04-28T09:14:14.348Z,2.50
2018-04-28T09:15:14.330Z,2.70
2018-04-28T09:16:14.260Z,2.50
2018-04-28T09:17:14.223Z,2.40
2018-04-28T09:18:14.174Z,2.40
2018-04-28T09:19:14.131Z,2.20
2018-04-28T09:20:14.108Z,2.30
2018-04-28T09:21:14.041Z,2.50
2018-04-28T09:22:13.998Z,2.40
2018-04-28T09:23:13.953Z,2.40
2018-04-28T09:24:13.909Z,2.30
2018-04-28T09:25:13.895Z,2.50
2018-04-28T09:26:13.902Z,2.50
2018-04-28T09:27:13.775Z,2.80
2018-04-28T09:28:13.729Z,2.40
2018-04-28T09:29:13.688Z,2.40
2018-04-28T09:30:13.665Z,2.70
2018-04-28T09:31:13.599Z,2.60
2018-04-28T09:32:13.556Z,2.40
2018-04-28T09:33:13.511Z,2.30
2018-04-28T09:34:13.468Z,2.60
2018-04-28T09:35:13.449Z,2.50
2018-04-28T09:36:13.381Z,2.30
2018-04-28T09:37:13.337Z,2.40
2018-04-28T09:38:13.290Z,2.20
2018-04-28T09:39:13.246Z,2.40
2018-04-28T09:40:13.234Z,2.30
2018-04-28T09:41:13.163Z,2.50
2018-04-28T09:42:13.115Z,2.60
2018-04-28T09:43:13.071Z,2.50
2018-04-28T09:44:13.027Z,2.50
2018-04-28T09:45:13.011Z,2.50
2018-04-28T09:46:12.941Z,2.40
2018-04-28T09:47:12.898Z,2.70
2018-04-28T09:48:12.852Z,2.40
2018-04-28T09:49:12.809Z,2.80
2018-04-28T09:50:12.787Z,2.30
2018-04-28T09:51:12.725Z,2.50
2018-04-28T09:52:12.680Z,2.40
2018-04-28T09:53:12.635Z,2.70
2018-04-28T09:54:12.595Z,2.40
2018-04-28T09:55:12.573Z,2.50
2018-04-28T09:56:12.504Z,2.60
2018-04-28T09:57:12.461Z,2.40
2018-04-28T09:58:12.420Z,2.20
2018-04-28T09:59:12.372Z,2.50
2018-04-28T10:00:12.350Z,2.70
2018-04-28T10:01:12.286Z,2.60
2018-04-28T10:02:12.237Z,2.50
2018-04-28T10:03:12.197Z,2.50
2018-04-28T10:04:12.156Z,2.40
2018-04-28T10:05:12.133Z,2.30
2018-04-28T10:06:12.065Z,2.40
2018-04-28T10:07:12.027Z,2.50
2018-04-28T10:08:11.981Z,2.30
2018-04-28T10:09:11.937Z,2.40
2018-04-28T10:10:11.934Z,2.40
2018-04-28T10:11:11.853Z,2.40
2018-04-28T10:12:11.808Z,2.20
2018-04-28T10:13:11.762Z,2.00
2018-04-28T10:14:11.723Z,1.80
2018-04-28T10:15:11.680Z,2.10
2018-04-28T10:16:11.653Z,2.30
2018-04-28T10:17:11.590Z,2.10
2018-04-28T10:18:11.545Z,1.90
2018-04-28T10:19:11.827Z,2.10
2018-04-28T10:20:11.523Z,2.00
2018-04-28T10:21:11.442Z,2.10
2018-04-28T10:22:11.375Z,1.90
2018-04-28T10:23:11.331Z,1.70
2018-04-28T10:24:11.306Z,1.70
2018-04-28T10:25:11.244Z,1.60
2018-04-28T10:26:11.224Z,1.70
2018-04-28T10:27:11.196Z,2.20
2018-04-28T10:28:11.114Z,2.00
2018-04-28T10:29:11.076Z,1.90
2018-04-28T10:30:11.033Z,1.80
2018-04-28T10:31:11.014Z,2.10
2018-04-28T10:32:10.942Z,1.90
2018-04-28T10:33:10.902Z,1.90
2018-04-28T10:34:10.860Z,1.70
2018-04-28T10:35:10.815Z,1.90
2018-04-28T10:36:10.798Z,1.90
2018-04-28T10:37:10.740Z,2.00
2018-04-28T10:38:10.686Z,1.90
2018-04-28T10:39:10.644Z,1.70
2018-04-28T10:40:10.608Z,1.80
2018-04-28T10:41:10.580Z,1.90
2018-04-28T10:42:10.513Z,1.70
2018-04-28T10:43:10.468Z,1.70
2018-04-28T10:44:10.446Z,1.90
2018-04-28T10:45:10.385Z,1.60
2018-04-28T10:46:10.362Z,1.70
2018-04-28T10:47:10.299Z,1.80
2018-04-28T10:48:10.253Z,2.10
2018-04-28T10:49:10.211Z,2.00
2018-04-28T10:50:10.165Z,2.00
2018-04-28T10:51:10.163Z,1.80
2018-04-28T10:52:10.081Z,1.90
2018-04-28T10:53:10.034Z,2.00
2018-04-28T10:54:09.998Z,1.80
2018-04-28T10:55:09.948Z,2.00
2018-04-28T10:56:09.911Z,2.10
2018-04-28T10:57:09.891Z,2.40
2018-04-28T10:58:09.821Z,2.10
2018-04-28T10:59:09.776Z,2.00
2018-04-28T11:00:09.731Z,2.10
2018-04-28T11:01:09.689Z,2.00
2018-04-28T11:02:09.666Z,2.10
2018-04-28T11:03:09.600Z,1.90
2018-04-28T11:04:09.557Z,2.30
2018-04-28T11:05:09.511Z,2.30
2018-04-28T11:06:09.471Z,2.10
2018-04-28T11:07:09.449Z,2.20
2018-04-28T11:08:09.381Z,2.30
2018-04-28T11:09:09.337Z,2.30
2018-04-28T11:10:09.297Z,2.50
2018-04-28T11:11:09.250Z,2.30
2018-04-28T11:12:09.230Z,2.00
2018-04-28T11:13:09.159Z,2.30
2018-04-28T11:14:09.121Z,2.30
2018-04-28T11:15:09.074Z,2.20
2018-04-28T11:16:09.031Z,2.20
2018-04-28T11:17:09.017Z,2.30
2018-04-28T11:18:08.947Z,2.00
2018-04-28T11:19:08.897Z,2.00
2018-04-28T11:20:08.857Z,2.10
2018-04-28T11:21:08.813Z,2.30
2018-04-28T11:22:08.793Z,2.00
2018-04-28T11:23:08.726Z,1.90
2018-04-28T11:24:08.680Z,2.30
2018-04-28T11:25:08.638Z,2.00
2018-04-28T11:26:08.595Z,2.00
2018-04-28T11:27:08.593Z,1.70
2018-04-28T11:28:08.506Z,1.90
2018-04-28T11:29:08.463Z,2.00
2018-04-28T11:30:08.419Z,1.90
2018-04-28T11:31:08.382Z,2.00
2018-04-28T11:32:08.335Z,1.80
2018-04-28T11:33:08.310Z,1.80
2018-04-28T11:34:08.245Z,1.90
2018-04-28T11:35:08.204Z,2.20
2018-04-28T11:36:08.159Z,2.00
2018-04-28T11:37:08.120Z,2.10
2018-04-28T11:38:08.130Z,2.10
2018-04-28T11:39:08.031Z,2.00
2018-04-28T11:40:07.988Z,1.80
2018-04-28T11:41:07.941Z,1.90
2018-04-28T11:42:07.902Z,1.80
2018-04-28T11:43:07.881Z,2.00
2018-04-28T11:44:07.813Z,1.90
2018-04-28T11:45:07.766Z,1.90
2018-04-28T11:46:07.725Z,2.00
2018-04-28T11:47:07.685Z,1.80
2018-04-28T11:48:07.664Z,1.90
2018-04-28T11:49:07.595Z,2.00
2018-04-28T11:50:07.549Z,1.70
2018-04-28T11:51:07.504Z,1.70
2018-04-28T11:52:07.460Z,1.80
2018-04-28T11:53:07.444Z,1.90
2018-04-28T11:54:07.380Z,2.00
2018-04-28T11:55:07.329Z,1.90
2018-04-28T11:56:07.285Z,1.90
2018-04-28T11:57:07.241Z,1.90
2018-04-28T11:58:07.222Z,2.10
2018-04-28T11:59:07.158Z,1.80
2018-04-28T12:00:07.110Z,1.80
2018-04-28T12:01:07.072Z,1.90
2018-04-28T12:02:07.026Z,1.70
2018-04-28T12:03:07.003Z,1.70
2018-04-28T12:04:06.936Z,1.90
2018-04-28T12:05:06.960Z,1.80
2018-04-28T12:06:06.850Z,1.80
2018-04-28T12:07:06.808Z,1.90
2018-04-28T12:08:06.789Z,1.70
2018-04-28T12:09:06.721Z,1.80
2018-04-28T12:10:06.677Z,1.60
2018-04-28T12:11:06.633Z,1.60
2018-04-28T12:12:06.591Z,1.70
2018-04-28T12:13:06.573Z,1.70
2018-04-28T12:14:06.505Z,1.60
2018-04-28T12:15:06.463Z,1.70
2018-04-28T12:16:06.415Z,1.70
2018-04-28T12:17:06.373Z,1.60
2018-04-28T12:18:06.358Z,1.40
2018-04-28T12:19:06.290Z,1.50
2018-04-28T12:20:06.244Z,1.50
2018-04-28T12:21:06.218Z,1.60
2018-04-28T12:22:06.161Z,1.60
2018-04-28T12:23:06.143Z,1.50
2018-04-28T12:24:06.074Z,1.30
2018-04-28T12:25:06.036Z,1.50
2018-04-28T12:26:05.986Z,1.70
2018-04-28T12:27:05.944Z,1.60
2018-04-28T12:28:05.926Z,1.50
2018-04-28T12:29:05.857Z,1.50
2018-04-28T12:30:05.843Z,1.30
2018-04-28T12:31:05.774Z,1.50
2018-04-28T12:32:05.729Z,1.50
2018-04-28T12:33:05.711Z,1.60
2018-04-28T12:34:05.643Z,1.90
2018-04-28T12:35:05.601Z,1.80
2018-04-28T12:36:05.687Z,1.30
2018-04-28T12:37:05.513Z,1.60
2018-04-28T12:38:05.499Z,1.30
2018-04-28T12:39:05.440Z,1.40
2018-04-28T12:40:05.385Z,1.50
2018-04-28T12:41:05.341Z,1.40
2018-04-28T12:42:05.297Z,1.40
2018-04-28T12:43:05.285Z,1.40
2018-04-28T12:44:05.217Z,1.50
2018-04-28T12:45:05.173Z,1.40
2018-04-28T12:46:05.127Z,1.60
2018-04-28T12:47:05.086Z,1.50
2018-04-28T12:48:06.414Z,1.50
2018-04-28T12:49:04.996Z,1.50
2018-04-28T12:50:04.953Z,1.40
2018-04-28T12:51:04.911Z,1.50
2018-04-28T12:52:04.873Z,1.50
2018-04-28T12:53:04.863Z,1.60
2018-04-28T12:54:04.782Z,1.60
2018-04-28T12:55:04.739Z,1.60
2018-04-28T12:56:04.699Z,1.50
2018-04-28T12:57:04.653Z,1.50
2018-04-28T12:58:04.633Z,1.50
2018-04-28T12:59:04.568Z,1.60
2018-04-28T13:00:04.526Z,1.40
2018-04-28T13:01:04.482Z,1.60
2018-04-28T13:02:04.443Z,1.60
2018-04-28T13:03:04.420Z,1.80
2018-04-28T13:04:04.352Z,1.70
2018-04-28T13:05:04.317Z,1.50
2018-04-28T13:06:04.361Z,1.60
2018-04-28T13:07:04.229Z,1.30
2018-04-28T13:08:04.207Z,1.50
2018-04-28T13:09:04.138Z,1.50
2018-04-28T13:10:04.102Z,1.40
2018-04-28T13:11:04.056Z,1.20
2018-04-28T13:12:04.014Z,1.30
2018-04-28T13:13:03.994Z,1.40
2018-04-28T13:14:03.927Z,1.30
2018-04-28T13:15:03.885Z,1.30
2018-04-28T13:16:03.841Z,1.30
2018-04-28T13:17:03.799Z,1.40
2018-04-28T13:18:03.777Z,1.40